Decoded Metar for KSDY (SIDNEY RICHLAND in MT, USA) (IATA:SDY) | Meteo·Mobile Aviation Weather
aviador You're here:

KSDY Decoded Metar

SIDNEY RICHLAND in MT, USA
Report Time2019-03-23 16:14:00
UTC Time2019-03-23 16:43:55
Flight Rules lifr LIFR
Wind170° at 03 kt
W.Decomp.*RWY 19: 2.6 kt HW 1.5 kt LCW
RWY 11: 1.9 kt HW 2.3 kt RCW
W.Rank170° ranks 12
Current wind is below 170° avg. (6.9)
Visibility9999 m
Phenomena:N/A
Clouds:Overcast 004 Hf
Expected CloudBase > 400 ft AGL from Temp-Dew spread
Ceiling400 ft
Temp04°C (ISA -7)
Dew Point03°C (93% RH)
AAT1.4°C
QNH1015 hPa
Density Alt1,178 ft
Elevation1,985 ft
Report Wrong Elevation
Raw Report
KSDY 231614Z AUTO 17003KT 10SM OVC004 04/03 A2996 RMK AO2=

Extra information for KSDY:More info

Metar Taf Metar & Taf Last 4 Metars F.Rules Stats Wind Profile Meteogram Temp Stats Airport Information Weather charts Add Link Nearby VenuesMetar ALERT Operation Metar Decoded Social comments

AIRNAV info for KSDY